Time;durP1;ratioP1;P1;durP2;ratioP2;P2;SDS_P1;SDS_P2;PMS_P1;PMS_P2;Temp;Humidity;BMP_temperature;BMP_pressure;BME280_temperature;BME280_humidity;BME280_pressure;Samples;Min_cycle;Max_cycle;Signal;HPM_P1;HPM_P2
2023/12/31 00:00:55;;;;;;;11.20;3.63;;;8.30;99.90;;;;;;5101617;28;20097;-66
2023/12/31 00:03:24;;;;;;;9.77;3.53;;;8.20;99.90;;;;;;5096293;28;20056;-67
2023/12/31 00:05:49;;;;;;;8.93;3.38;;;8.20;99.90;;;;;;5097920;28;20122;-66
2023/12/31 00:08:15;;;;;;;9.38;3.10;;;8.20;99.90;;;;;;5096736;28;20031;-66
2023/12/31 00:10:41;;;;;;;8.13;3.58;;;8.20;99.90;;;;;;5080539;28;20079;-67
2023/12/31 00:13:07;;;;;;;7.80;3.50;;;8.20;99.90;;;;;;5101808;28;20582;-66
2023/12/31 00:15:33;;;;;;;9.40;3.40;;;8.20;99.90;;;;;;5125523;27;20127;-66
2023/12/31 00:18:00;;;;;;;7.55;2.85;;;8.30;99.90;;;;;;5100237;28;20059;-65
2023/12/31 00:20:27;;;;;;;9.63;2.97;;;8.20;99.90;;;;;;5102977;28;20499;-66
2023/12/31 00:22:52;;;;;;;7.63;3.03;;;8.40;99.90;;;;;;5106190;28;20051;-66
2023/12/31 00:25:18;;;;;;;7.10;2.70;;;8.30;99.90;;;;;;5105432;28;20456;-67
2023/12/31 00:27:44;;;;;;;7.60;2.80;;;8.30;99.90;;;;;;5096164;28;20044;-67
2023/12/31 00:30:11;;;;;;;8.98;2.67;;;8.30;99.90;;;;;;5129552;27;20131;-66
2023/12/31 00:32:37;;;;;;;6.28;2.70;;;8.30;99.90;;;;;;5103732;28;20491;-66
2023/12/31 00:35:03;;;;;;;6.82;2.70;;;8.30;99.90;;;;;;5102634;28;20155;-65
2023/12/31 00:37:29;;;;;;;6.53;2.53;;;8.30;99.90;;;;;;5124826;27;20089;-66
2023/12/31 00:39:55;;;;;;;6.80;2.65;;;8.40;99.90;;;;;;5102388;28;20126;-66
2023/12/31 00:42:21;;;;;;;9.57;2.90;;;8.40;99.90;;;;;;5100332;28;20128;-66
2023/12/31 00:44:47;;;;;;;5.82;2.35;;;8.90;99.90;;;;;;5101954;28;20113;-66
2023/12/31 00:47:13;;;;;;;6.63;2.30;;;8.70;99.90;;;;;;5105901;28;20504;-67
2023/12/31 00:49:39;;;;;;;6.82;2.50;;;8.50;99.90;;;;;;5086797;28;20075;-66
2023/12/31 00:52:05;;;;;;;6.93;2.45;;;8.40;99.90;;;;;;5098495;28;20048;-66
2023/12/31 00:54:30;;;;;;;7.53;2.50;;;8.40;99.90;;;;;;5126592;27;20051;-65
2023/12/31 00:56:56;;;;;;;9.10;2.75;;;8.40;99.90;;;;;;5103071;27;20538;-67
2023/12/31 00:59:22;;;;;;;7.07;2.33;;;8.40;99.90;;;;;;5099589;28;20061;-66
2023/12/31 01:01:48;;;;;;;7.82;2.47;;;8.40;99.90;;;;;;5102957;28;20043;-64
2023/12/31 01:04:14;;;;;;;6.82;2.28;;;8.40;99.90;;;;;;5103464;28;20052;-65
2023/12/31 01:06:40;;;;;;;7.15;2.00;;;8.40;99.90;;;;;;5101198;28;20229;-65
2023/12/31 01:09:06;;;;;;;7.72;2.10;;;8.40;99.90;;;;;;5085791;27;20043;-65
2023/12/31 01:11:34;;;;;;;5.25;2.15;;;8.50;99.90;;;;;;5098902;28;20032;-66
2023/12/31 01:14:00;;;;;;;6.25;2.10;;;8.40;99.90;;;;;;5097206;28;20042;-65
2023/12/31 01:16:25;;;;;;;7.65;2.38;;;8.40;99.90;;;;;;5105498;28;20542;-67
2023/12/31 01:18:51;;;;;;;6.15;2.10;;;8.50;99.90;;;;;;5099146;28;20157;-67
2023/12/31 01:21:21;;;;;;;5.05;1.92;;;8.50;99.90;;;;;;5127319;27;20043;-66
2023/12/31 01:23:47;;;;;;;4.90;1.83;;;8.50;99.90;;;;;;5126630;27;20054;-66
2023/12/31 01:26:13;;;;;;;4.93;1.88;;;8.50;99.90;;;;;;5103562;28;20686;-66
2023/12/31 01:28:39;;;;;;;5.55;1.90;;;8.50;99.90;;;;;;5099068;28;20089;-71
2023/12/31 01:31:05;;;;;;;5.10;2.13;;;8.60;99.90;;;;;;5098173;28;20136;-65
2023/12/31 01:33:30;;;;;;;5.40;1.90;;;8.60;99.90;;;;;;5102578;28;20577;-65
2023/12/31 01:35:56;;;;;;;5.53;1.63;;;8.60;99.90;;;;;;5103305;28;20039;-65
2023/12/31 01:38:22;;;;;;;7.50;1.95;;;8.60;99.90;;;;;;5128230;27;20047;-66
2023/12/31 01:40:54;;;;;;;7.68;2.10;;;8.60;99.90;;;;;;5104801;27;20500;-65
2023/12/31 01:43:23;;;;;;;4.50;1.67;;;8.60;99.90;;;;;;5103651;28;20219;-65
2023/12/31 01:45:49;;;;;;;4.35;1.77;;;8.50;99.90;;;;;;5124921;27;20052;-66
2023/12/31 01:48:15;;;;;;;5.22;1.70;;;8.50;99.90;;;;;;5108832;27;20490;-66
2023/12/31 01:50:42;;;;;;;4.35;1.55;;;8.50;99.90;;;;;;5102251;28;20150;-65
2023/12/31 01:53:08;;;;;;;5.05;1.98;;;8.50;99.90;;;;;;5102109;28;20050;-65
2023/12/31 01:55:34;;;;;;;6.38;1.83;;;8.70;99.90;;;;;;5102926;28;20103;-65
2023/12/31 01:58:01;;;;;;;3.75;1.73;;;8.40;99.90;;;;;;5080912;28;20079;-66
2023/12/31 02:00:27;;;;;;;4.88;2.15;;;8.40;99.90;;;;;;5082987;28;20491;-65
2023/12/31 02:02:54;;;;;;;4.95;1.90;;;8.40;99.90;;;;;;5101706;28;20859;-65
2023/12/31 02:05:23;;;;;;;5.35;1.80;;;8.30;99.90;;;;;;5100557;28;20051;-66
2023/12/31 02:07:48;;;;;;;4.13;1.65;;;8.30;99.90;;;;;;5101979;28;20047;-66
2023/12/31 02:10:15;;;;;;;4.85;1.67;;;8.30;99.90;;;;;;5084194;28;20524;-67
2023/12/31 02:12:41;;;;;;;6.32;1.88;;;8.30;99.90;;;;;;5084710;28;20175;-66
2023/12/31 02:15:08;;;;;;;7.75;1.98;;;8.30;99.90;;;;;;5101468;28;20047;-66
2023/12/31 02:17:34;;;;;;;4.50;1.50;;;8.20;99.90;;;;;;5127678;27;20492;-66
2023/12/31 02:20:01;;;;;;;4.53;1.75;;;8.30;99.90;;;;;;5129392;27;20043;-66
2023/12/31 02:22:27;;;;;;;5.35;1.55;;;8.20;99.90;;;;;;5110156;27;20036;-66
2023/12/31 02:24:56;;;;;;;5.60;1.75;;;8.20;99.90;;;;;;5100449;28;20120;-69
2023/12/31 02:27:21;;;;;;;6.10;1.63;;;8.20;99.90;;;;;;5102518;28;20709;-66
2023/12/31 02:29:47;;;;;;;4.10;1.48;;;8.20;99.90;;;;;;5129518;27;20055;-66
2023/12/31 02:32:13;;;;;;;7.68;1.80;;;8.20;99.90;;;;;;5101151;28;20135;-66
2023/12/31 02:34:44;;;;;;;3.90;1.70;;;8.20;99.90;;;;;;5100522;28;20718;-64
2023/12/31 02:37:10;;;;;;;5.20;1.60;;;8.20;99.90;;;;;;5099278;28;20058;-65
2023/12/31 02:39:35;;;;;;;4.85;1.52;;;8.60;99.90;;;;;;5131373;27;20052;-67
2023/12/31 02:42:01;;;;;;;3.95;1.42;;;8.60;99.90;;;;;;5100903;28;20742;-66
2023/12/31 02:44:27;;;;;;;4.03;1.60;;;8.10;99.90;;;;;;5100900;28;20047;-66
2023/12/31 02:46:53;;;;;;;7.78;1.70;;;8.10;99.90;;;;;;5124445;27;20051;-65
2023/12/31 02:49:19;;;;;;;4.22;1.88;;;8.10;99.90;;;;;;5081956;28;20646;-66
2023/12/31 02:51:44;;;;;;;6.00;1.58;;;8.10;99.90;;;;;;5097092;28;20052;-66
2023/12/31 02:54:10;;;;;;;5.32;1.50;;;8.20;99.90;;;;;;5102347;28;20511;-65
2023/12/31 02:56:40;;;;;;;5.45;1.50;;;8.10;99.90;;;;;;5128993;27;20044;-69
2023/12/31 02:59:06;;;;;;;3.80;1.60;;;8.10;99.90;;;;;;5126259;27;20054;-67
2023/12/31 03:01:32;;;;;;;4.65;1.63;;;7.80;99.90;;;;;;5131109;27;20043;-66
2023/12/31 03:04:00;;;;;;;4.38;1.70;;;8.10;99.90;;;;;;5097825;28;20043;-66
2023/12/31 03:06:30;;;;;;;4.30;1.50;;;8.10;99.90;;;;;;5094033;28;20040;-67
2023/12/31 03:08:58;;;;;;;3.45;1.50;;;8.10;99.90;;;;;;5096199;28;20035;-71
2023/12/31 03:11:25;;;;;;;3.72;1.52;;;8.10;99.90;;;;;;5103060;28;20051;-67
2023/12/31 03:13:51;;;;;;;3.88;1.30;;;8.10;99.90;;;;;;5101789;28;20655;-67
2023/12/31 03:16:17;;;;;;;5.55;1.60;;;8.10;99.90;;;;;;5125260;27;20127;-67
2023/12/31 03:18:43;;;;;;;5.30;1.60;;;8.10;99.90;;;;;;5101251;28;20036;-68
2023/12/31 03:21:14;;;;;;;3.35;1.30;;;8.10;99.90;;;;;;5102765;28;20120;-68
2023/12/31 03:23:39;;;;;;;;;;;8.10;99.90;;;;;;5129694;27;20097;-68
2023/12/31 03:26:09;;;;;;;5.20;1.67;;;8.10;99.90;;;;;;5086303;28;20333;-67
2023/12/31 03:28:35;;;;;;;4.72;1.52;;;8.10;99.90;;;;;;5102159;28;20053;-67
2023/12/31 03:31:01;;;;;;;5.38;1.73;;;8.10;99.90;;;;;;5083320;28;20039;-68
2023/12/31 03:33:26;;;;;;;4.90;1.88;;;8.10;99.90;;;;;;5097332;28;20063;-68
2023/12/31 03:35:52;;;;;;;2.83;1.48;;;8.10;99.90;;;;;;5104024;28;20047;-67
2023/12/31 03:38:18;;;;;;;5.60;1.90;;;8.10;99.90;;;;;;5102974;28;20040;-69
2023/12/31 03:40:44;;;;;;;5.03;1.88;;;8.10;99.90;;;;;;5080930;28;20040;-68
2023/12/31 03:43:10;;;;;;;6.53;2.00;;;8.10;99.90;;;;;;5095543;28;20127;-68
2023/12/31 03:45:35;;;;;;;5.43;1.92;;;8.10;99.90;;;;;;5105935;27;20032;-67
2023/12/31 03:48:01;;;;;;;7.38;2.05;;;8.10;99.90;;;;;;5094719;28;20043;-68
2023/12/31 03:50:27;;;;;;;6.47;2.10;;;8.10;99.90;;;;;;5096933;28;20140;-67
2023/12/31 03:52:53;;;;;;;4.65;2.13;;;8.10;99.90;;;;;;5126560;27;20193;-65
2023/12/31 03:55:18;;;;;;;5.75;1.90;;;8.20;99.90;;;;;;5120369;27;20043;-66
2023/12/31 03:57:44;;;;;;;4.43;1.85;;;8.20;99.90;;;;;;5099815;28;20040;-65
2023/12/31 04:00:10;;;;;;;8.82;2.35;;;8.20;99.90;;;;;;5097703;28;20052;-65
2023/12/31 04:02:36;;;;;;;4.90;1.80;;;8.30;99.90;;;;;;5096147;27;20213;-66
2023/12/31 04:05:04;;;;;;;6.78;1.60;;;8.30;99.90;;;;;;5096067;27;20846;-65
2023/12/31 04:07:30;;;;;;;5.00;2.08;;;8.30;99.90;;;;;;5097619;28;20434;-65
2023/12/31 04:09:56;;;;;;;4.40;1.80;;;8.30;99.90;;;;;;5122552;27;20052;-66
2023/12/31 04:12:22;;;;;;;5.85;1.80;;;8.50;99.90;;;;;;5098438;28;20083;-65
2023/12/31 04:14:47;;;;;;;3.92;1.70;;;8.30;99.90;;;;;;5124213;27;20111;-65
2023/12/31 04:17:13;;;;;;;3.38;1.60;;;8.40;99.90;;;;;;5096491;28;20700;-66
2023/12/31 04:19:39;;;;;;;3.90;1.60;;;8.40;99.90;;;;;;5127897;27;20518;-66
2023/12/31 04:22:04;;;;;;;5.10;1.70;;;8.40;99.90;;;;;;5087030;28;20043;-65
2023/12/31 04:24:30;;;;;;;5.53;2.10;;;8.40;99.90;;;;;;5129563;27;20485;-65
2023/12/31 04:26:57;;;;;;;4.80;1.67;;;8.40;99.90;;;;;;5106143;28;20067;-66
2023/12/31 04:29:23;;;;;;;3.75;1.42;;;8.90;99.90;;;;;;5098281;28;20112;-66
2023/12/31 04:31:49;;;;;;;6.20;1.75;;;8.40;99.90;;;;;;5098155;28;20040;-67
2023/12/31 04:34:14;;;;;;;4.93;1.55;;;8.50;99.90;;;;;;5103038;28;20039;-67
2023/12/31 04:36:44;;;;;;;6.20;1.52;;;8.90;99.90;;;;;;5097144;28;20716;-68
2023/12/31 04:39:10;;;;;;;5.47;1.60;;;8.50;99.90;;;;;;5106803;27;20067;-65
2023/12/31 04:41:35;;;;;;;5.32;1.60;;;8.50;99.90;;;;;;5084063;28;20044;-66
2023/12/31 04:44:01;;;;;;;7.65;1.65;;;8.50;99.90;;;;;;5104538;28;20050;-66
2023/12/31 04:46:27;;;;;;;5.97;1.75;;;9.00;99.90;;;;;;5104643;28;20112;-66
2023/12/31 04:48:53;;;;;;;3.90;1.50;;;8.40;99.90;;;;;;5104269;28;20044;-66
2023/12/31 04:51:30;;;;;;;3.65;1.52;;;8.50;99.90;;;;;;5126587;27;20108;-66
2023/12/31 04:53:56;;;;;;;4.10;1.88;;;8.40;99.90;;;;;;5085696;28;20051;-66
2023/12/31 04:56:24;;;;;;;4.53;1.63;;;8.40;99.90;;;;;;5078391;28;20055;-66
2023/12/31 04:58:54;;;;;;;5.93;2.03;;;8.40;99.90;;;;;;5099643;28;20099;-66
2023/12/31 05:01:23;;;;;;;5.30;1.67;;;8.40;99.90;;;;;;5124805;27;20520;-65
2023/12/31 05:03:49;;;;;;;4.50;1.60;;;8.40;99.90;;;;;;5084944;28;20059;-66
2023/12/31 05:06:15;;;;;;;5.80;1.80;;;8.40;99.90;;;;;;5104110;28;20065;-66
2023/12/31 05:08:43;;;;;;;4.47;1.92;;;8.70;99.90;;;;;;5102873;28;20138;-66
2023/12/31 05:11:10;;;;;;;4.05;1.50;;;8.40;99.90;;;;;;5103945;28;20134;-67
2023/12/31 05:13:36;;;;;;;3.33;1.48;;;8.40;99.90;;;;;;5109156;27;20487;-66
2023/12/31 05:16:02;;;;;;;4.60;1.77;;;8.40;99.90;;;;;;5103233;28;20044;-66
2023/12/31 05:18:28;;;;;;;4.25;1.60;;;8.40;99.90;;;;;;5129804;27;20055;-66
2023/12/31 05:20:54;;;;;;;5.97;1.73;;;8.50;99.90;;;;;;5104828;28;20211;-69
2023/12/31 05:23:19;;;;;;;4.05;1.60;;;8.40;99.90;;;;;;5098670;28;20048;-67
2023/12/31 05:25:45;;;;;;;5.50;1.63;;;8.40;99.90;;;;;;5119167;27;20067;-66
2023/12/31 05:28:11;;;;;;;6.05;1.90;;;8.40;99.90;;;;;;5093175;28;20115;-66
2023/12/31 05:30:41;;;;;;;3.80;1.60;;;8.40;99.90;;;;;;5072769;28;20032;-69
2023/12/31 05:33:07;;;;;;;5.63;1.98;;;8.40;99.90;;;;;;5120736;27;20043;-67
2023/12/31 05:35:33;;;;;;;6.78;1.83;;;8.40;99.90;;;;;;5108648;27;20048;-71
2023/12/31 05:37:59;;;;;;;4.10;1.50;;;8.50;99.90;;;;;;5092530;28;20515;-67
2023/12/31 05:40:24;;;;;;;5.97;1.90;;;8.40;99.90;;;;;;5095146;28;20118;-65
2023/12/31 05:42:53;;;;;;;4.90;1.60;;;8.40;99.90;;;;;;5075944;28;20047;-66
2023/12/31 05:45:19;;;;;;;5.13;1.77;;;8.40;99.90;;;;;;5093774;28;20051;-67
2023/12/31 05:47:46;;;;;;;4.38;1.70;;;8.60;99.90;;;;;;5098261;27;20032;-68
2023/12/31 05:50:12;;;;;;;8.93;2.10;;;8.40;99.90;;;;;;5101277;28;20039;-67
2023/12/31 05:52:38;;;;;;;5.55;1.70;;;8.40;99.90;;;;;;5134055;27;20172;-67
2023/12/31 05:55:04;;;;;;;5.68;2.10;;;8.40;99.90;;;;;;5136464;27;20080;-67
2023/12/31 05:57:30;;;;;;;6.43;2.13;;;8.40;99.90;;;;;;5080738;28;20055;-67
2023/12/31 05:59:55;;;;;;;5.65;2.10;;;8.40;99.90;;;;;;5082210;28;20052;-66
2023/12/31 06:02:22;;;;;;;5.07;2.20;;;8.40;99.90;;;;;;5129360;27;20078;-66
2023/12/31 06:04:47;;;;;;;3.72;1.63;;;8.40;99.90;;;;;;5103470;28;20048;-67
2023/12/31 06:07:13;;;;;;;3.75;1.70;;;8.90;99.90;;;;;;5131506;27;20050;-65
2023/12/31 06:09:39;;;;;;;4.65;1.83;;;8.40;99.90;;;;;;5120999;27;20040;-66
2023/12/31 06:12:05;;;;;;;5.25;2.00;;;8.50;99.90;;;;;;5094948;28;20044;-65
2023/12/31 06:14:30;;;;;;;4.88;1.90;;;8.40;99.90;;;;;;5095666;28;20058;-66
2023/12/31 06:16:56;;;;;;;6.57;2.10;;;8.40;99.90;;;;;;5103936;27;20396;-66
2023/12/31 06:19:22;;;;;;;5.60;1.80;;;8.40;99.90;;;;;;5101737;28;20059;-65
2023/12/31 06:21:47;;;;;;;4.13;1.90;;;8.40;99.90;;;;;;5119904;27;20044;-66
2023/12/31 06:24:13;;;;;;;4.63;1.58;;;8.40;99.90;;;;;;5086416;28;20053;-66
2023/12/31 06:26:39;;;;;;;5.07;1.70;;;8.40;99.90;;;;;;5100149;28;20095;-66
2023/12/31 06:29:05;;;;;;;5.93;1.73;;;8.40;99.90;;;;;;5101600;28;20055;-66
2023/12/31 06:31:30;;;;;;;3.63;1.55;;;8.40;99.90;;;;;;5084105;28;20051;-67
2023/12/31 06:33:56;;;;;;;4.07;1.90;;;8.40;99.90;;;;;;5100542;28;20039;-66
2023/12/31 06:36:22;;;;;;;3.97;1.50;;;8.40;99.90;;;;;;5093972;28;20082;-65
2023/12/31 06:38:48;;;;;;;5.70;2.05;;;8.50;99.90;;;;;;5092252;28;20491;-65
2023/12/31 06:41:13;;;;;;;4.38;1.83;;;8.40;99.90;;;;;;5092062;28;20360;-66
2023/12/31 06:43:39;;;;;;;4.53;1.60;;;8.40;99.90;;;;;;5127555;27;20047;-65
2023/12/31 06:46:05;;;;;;;4.03;1.90;;;8.70;99.90;;;;;;5098543;28;20103;-67
2023/12/31 06:48:31;;;;;;;5.10;1.90;;;8.30;99.90;;;;;;5102710;28;20599;-67
2023/12/31 06:50:57;;;;;;;4.30;1.88;;;8.40;99.90;;;;;;5130896;27;20046;-65
2023/12/31 06:53:23;;;;;;;5.35;1.92;;;8.30;99.90;;;;;;5084647;28;20052;-66
2023/12/31 06:55:49;;;;;;;4.90;2.17;;;8.30;99.90;;;;;;5086152;28;20075;-65
2023/12/31 06:58:15;;;;;;;6.15;2.08;;;8.30;99.90;;;;;;5096132;28;20083;-66
2023/12/31 07:00:41;;;;;;;5.53;2.00;;;8.40;99.90;;;;;;5090406;28;20039;-66
2023/12/31 07:03:07;;;;;;;4.88;2.17;;;8.30;99.90;;;;;;5087243;28;20403;-67
2023/12/31 07:05:32;;;;;;;5.43;1.98;;;8.30;99.90;;;;;;5104844;28;20062;-66
2023/12/31 07:07:58;;;;;;;5.60;2.17;;;8.30;99.90;;;;;;5103777;28;20090;-66
2023/12/31 07:10:24;;;;;;;5.70;2.17;;;8.40;99.90;;;;;;5103367;28;20090;-66
2023/12/31 07:12:50;;;;;;;4.95;1.98;;;8.30;99.90;;;;;;5103673;28;20508;-67
2023/12/31 07:15:18;;;;;;;5.45;2.00;;;8.40;99.90;;;;;;5076043;28;20089;-66
2023/12/31 07:17:44;;;;;;;5.05;1.90;;;8.30;99.90;;;;;;5107420;27;20492;-67
2023/12/31 07:20:11;;;;;;;4.82;2.00;;;8.40;99.90;;;;;;5105778;28;20077;-68
2023/12/31 07:22:38;;;;;;;5.55;2.30;;;8.40;99.90;;;;;;5093663;28;20372;-66
2023/12/31 07:25:07;;;;;;;5.85;2.22;;;8.40;99.90;;;;;;5103782;28;20700;-67
2023/12/31 07:27:32;;;;;;;6.85;2.20;;;8.40;99.90;;;;;;5107195;28;20640;-67
2023/12/31 07:29:58;;;;;;;6.15;2.20;;;8.40;99.90;;;;;;5104566;28;20040;-65
2023/12/31 07:32:24;;;;;;;6.65;2.08;;;8.40;99.90;;;;;;5101113;28;20476;-66
2023/12/31 07:34:50;;;;;;;6.07;2.47;;;8.40;99.90;;;;;;5126200;27;20125;-66
2023/12/31 07:37:16;;;;;;;5.38;2.15;;;8.40;99.90;;;;;;5106525;28;20780;-66
2023/12/31 07:39:42;;;;;;;5.28;2.00;;;8.40;99.90;;;;;;5105828;28;20059;-66
2023/12/31 07:42:08;;;;;;;4.80;1.95;;;8.40;99.90;;;;;;5102474;28;20047;-66
2023/12/31 07:44:33;;;;;;;6.65;2.58;;;8.70;99.90;;;;;;5102803;28;20086;-66
2023/12/31 07:46:59;;;;;;;5.90;2.40;;;8.90;99.90;;;;;;5096113;28;20511;-66
2023/12/31 07:49:25;;;;;;;4.65;2.20;;;8.40;99.90;;;;;;5100995;28;20058;-65
2023/12/31 07:51:51;;;;;;;5.75;2.00;;;8.40;99.90;;;;;;5133609;27;20031;-66
2023/12/31 07:54:17;;;;;;;5.28;2.10;;;8.50;99.90;;;;;;5088295;28;20071;-72
2023/12/31 07:56:42;;;;;;;3.80;1.80;;;8.50;99.90;;;;;;5100978;28;20051;-66
2023/12/31 07:59:08;;;;;;;4.35;2.03;;;8.50;99.90;;;;;;5135437;27;20074;-66
2023/12/31 08:01:37;;;;;;;5.32;2.30;;;8.50;99.90;;;;;;5106276;28;20544;-66
2023/12/31 08:04:03;;;;;;;6.50;2.30;;;8.50;99.90;;;;;;5134315;27;20362;-66
2023/12/31 08:06:29;;;;;;;7.85;2.20;;;8.50;99.90;;;;;;5097070;28;20508;-66
2023/12/31 08:08:55;;;;;;;6.05;2.05;;;8.60;99.90;;;;;;5100543;28;20047;-66
2023/12/31 08:11:23;;;;;;;4.05;1.88;;;8.60;99.90;;;;;;5129646;27;20047;-65
2023/12/31 08:13:49;;;;;;;5.53;2.28;;;8.60;99.90;;;;;;5092679;28;20075;-66
2023/12/31 08:16:15;;;;;;;4.43;2.28;;;8.60;99.90;;;;;;5102194;28;20463;-67
2023/12/31 08:18:40;;;;;;;7.45;2.33;;;8.70;99.90;;;;;;5106435;28;20132;-67
2023/12/31 08:21:06;;;;;;;5.97;2.10;;;8.70;99.90;;;;;;5137752;27;20043;-66
2023/12/31 08:23:32;;;;;;;4.47;1.73;;;8.70;99.90;;;;;;5102580;28;20044;-66
2023/12/31 08:25:58;;;;;;;5.50;2.20;;;8.70;99.90;;;;;;5070453;28;20043;-66
2023/12/31 08:28:24;;;;;;;6.05;2.20;;;8.70;99.90;;;;;;5096386;28;20067;-67
2023/12/31 08:30:49;;;;;;;6.38;2.28;;;8.70;99.90;;;;;;5094290;28;20186;-66
2023/12/31 08:33:15;;;;;;;6.63;2.13;;;8.70;99.90;;;;;;5100116;28;20051;-66
2023/12/31 08:35:42;;;;;;;5.80;1.88;;;8.70;99.90;;;;;;5091224;28;20047;-66
2023/12/31 08:38:07;;;;;;;5.03;2.30;;;8.70;99.90;;;;;;5100157;27;20035;-66
2023/12/31 08:40:33;;;;;;;4.90;2.03;;;8.70;99.90;;;;;;5100163;28;20071;-65
2023/12/31 08:42:59;;;;;;;4.43;1.80;;;8.70;99.90;;;;;;5124909;27;20038;-66
2023/12/31 08:45:24;;;;;;;5.38;2.25;;;8.70;99.90;;;;;;5097623;28;20103;-66
2023/12/31 08:47:53;;;;;;;6.78;2.25;;;9.00;99.90;;;;;;5099955;28;20063;-66
2023/12/31 08:50:19;;;;;;;4.70;1.83;;;8.70;99.90;;;;;;5107787;27;20047;-66
2023/12/31 08:52:46;;;;;;;5.03;2.10;;;8.70;99.90;;;;;;5099615;28;20096;-69
2023/12/31 08:55:12;;;;;;;5.97;2.13;;;8.70;99.90;;;;;;5097633;28;20640;-67
2023/12/31 08:57:42;;;;;;;4.22;2.03;;;8.90;99.90;;;;;;5127731;27;20092;-67
2023/12/31 09:00:09;;;;;;;4.22;2.00;;;8.80;99.90;;;;;;5081429;28;20052;-66
2023/12/31 09:02:35;;;;;;;4.45;1.80;;;8.80;99.90;;;;;;5081692;28;20043;-66
2023/12/31 09:05:01;;;;;;;5.93;2.20;;;9.00;99.90;;;;;;5098138;28;20066;-67
2023/12/31 09:07:27;;;;;;;6.50;2.28;;;8.80;99.90;;;;;;5125809;27;20511;-65
2023/12/31 09:09:53;;;;;;;6.82;2.40;;;8.90;99.90;;;;;;5100807;28;20775;-66
2023/12/31 09:12:19;;;;;;;4.70;1.85;;;8.90;99.90;;;;;;5083436;28;20142;-66
2023/12/31 09:14:44;;;;;;;5.45;2.10;;;8.90;99.90;;;;;;5099102;28;20057;-66
2023/12/31 09:17:11;;;;;;;4.97;2.28;;;8.90;99.90;;;;;;5101992;28;20260;-66
2023/12/31 09:19:38;;;;;;;5.65;2.30;;;8.90;99.90;;;;;;5096812;28;20040;-66
2023/12/31 09:22:04;;;;;;;4.68;2.28;;;8.90;99.90;;;;;;5099664;28;20090;-67
2023/12/31 09:24:31;;;;;;;5.00;2.05;;;9.00;99.90;;;;;;5082574;28;20053;-67
2023/12/31 09:26:57;;;;;;;6.28;2.47;;;9.00;99.90;;;;;;5132803;27;20047;-67
2023/12/31 09:29:23;;;;;;;5.78;2.05;;;9.00;99.90;;;;;;5098066;28;20392;-67
2023/12/31 09:31:49;;;;;;;6.40;2.15;;;9.00;99.90;;;;;;5128637;27;20047;-66
2023/12/31 09:34:15;;;;;;;5.18;2.13;;;9.00;99.90;;;;;;5099178;28;20078;-67
2023/12/31 09:36:41;;;;;;;8.43;2.42;;;9.00;99.90;;;;;;5099518;28;20162;-66
2023/12/31 09:39:08;;;;;;;6.38;2.40;;;9.00;99.90;;;;;;5075372;28;20043;-66
2023/12/31 09:41:36;;;;;;;5.55;2.35;;;9.00;99.90;;;;;;5100486;28;20183;-66
2023/12/31 09:44:03;;;;;;;6.78;2.40;;;9.00;99.90;;;;;;5100179;28;20553;-65
2023/12/31 09:46:32;;;;;;;8.05;2.42;;;9.00;99.90;;;;;;5100470;28;20132;-66
2023/12/31 09:48:59;;;;;;;6.10;2.70;;;9.10;99.90;;;;;;5128792;27;20228;-66
2023/12/31 09:51:25;;;;;;;6.93;2.50;;;9.00;99.90;;;;;;5098551;28;20047;-65
2023/12/31 09:53:55;;;;;;;6.85;2.33;;;9.00;99.90;;;;;;5081836;28;20062;-66
2023/12/31 09:56:22;;;;;;;6.10;2.33;;;9.10;99.90;;;;;;5095427;28;20138;-65
2023/12/31 09:58:51;;;;;;;5.28;2.50;;;9.10;99.90;;;;;;5095695;28;20054;-67
2023/12/31 10:01:17;;;;;;;5.72;2.38;;;9.10;99.90;;;;;;5092633;28;20066;-68
2023/12/31 10:03:45;;;;;;;6.25;2.67;;;9.10;99.90;;;;;;5079741;28;20080;-67
2023/12/31 10:06:11;;;;;;;6.35;2.85;;;9.00;99.90;;;;;;5099748;28;20138;-67
2023/12/31 10:08:39;;;;;;;5.82;2.38;;;9.10;99.90;;;;;;5097274;28;20511;-65
2023/12/31 10:11:06;;;;;;;43.95;13.40;;;9.10;99.90;;;;;;5093564;28;20446;-66
2023/12/31 10:13:31;;;;;;;78.82;25.50;;;9.10;99.90;;;;;;5098500;28;20568;-67
2023/12/31 10:15:57;;;;;;;52.90;29.52;;;9.10;99.90;;;;;;5096927;28;20115;-66
2023/12/31 10:18:26;;;;;;;16.70;7.72;;;9.10;99.90;;;;;;5091063;28;20127;-67
2023/12/31 10:20:53;;;;;;;6.72;3.28;;;9.10;99.90;;;;;;5078150;28;20580;-66
2023/12/31 10:23:18;;;;;;;9.88;6.30;;;9.20;99.90;;;;;;5123047;27;20055;-66
2023/12/31 10:25:44;;;;;;;10.05;6.10;;;9.20;99.90;;;;;;5094289;28;20047;-66
2023/12/31 10:28:10;;;;;;;14.48;10.73;;;9.20;99.90;;;;;;5121013;27;20036;-65
2023/12/31 10:30:40;;;;;;;17.45;9.65;;;9.20;99.90;;;;;;5096357;28;20640;-65
2023/12/31 10:33:10;;;;;;;14.77;10.75;;;9.20;99.90;;;;;;5097978;28;20036;-66
2023/12/31 10:35:37;;;;;;;14.15;6.57;;;9.30;99.90;;;;;;5100084;28;20135;-66
2023/12/31 10:38:04;;;;;;;6.40;3.53;;;9.30;99.90;;;;;;5079154;28;20558;-66
2023/12/31 10:40:30;;;;;;;6.40;2.90;;;9.30;99.90;;;;;;5089419;28;20086;-66
2023/12/31 10:42:56;;;;;;;6.80;3.13;;;9.30;99.90;;;;;;5090284;28;20148;-67
2023/12/31 10:45:23;;;;;;;10.13;3.80;;;9.40;99.90;;;;;;5101951;28;20051;-66
2023/12/31 10:47:53;;;;;;;6.25;3.35;;;9.40;99.90;;;;;;5101957;28;20083;-66
2023/12/31 10:50:25;;;;;;;7.20;3.15;;;9.40;99.90;;;;;;5093176;28;20048;-66
2023/12/31 10:52:53;;;;;;;7.38;3.17;;;9.40;99.90;;;;;;5092072;28;20039;-66
2023/12/31 10:55:23;;;;;;;9.57;3.28;;;9.40;99.90;;;;;;5090810;28;20104;-67
2023/12/31 10:57:51;;;;;;;5.65;2.90;;;9.40;99.90;;;;;;5118270;27;20111;-65
2023/12/31 11:00:19;;;;;;;9.73;3.08;;;9.40;99.90;;;;;;5095617;28;20040;-66
2023/12/31 11:02:46;;;;;;;6.18;3.22;;;9.40;99.90;;;;;;5082111;28;20507;-65
2023/12/31 11:05:17;;;;;;;10.40;3.75;;;9.60;99.90;;;;;;5089443;28;20156;-65
2023/12/31 11:07:45;;;;;;;8.13;3.20;;;9.40;99.90;;;;;;5104776;28;20386;-65
2023/12/31 11:10:12;;;;;;;7.10;3.38;;;9.70;99.90;;;;;;5090021;28;20834;-65
2023/12/31 11:12:39;;;;;;;7.13;3.42;;;9.40;99.90;;;;;;5097222;28;20040;-65
2023/12/31 11:15:18;;;;;;;6.60;3.17;;;9.50;99.90;;;;;;5092567;28;20133;-66
2023/12/31 11:18:06;;;;;;;7.47;3.53;;;9.30;99.90;;;;;;5085882;28;20046;-66
2023/12/31 11:21:07;;;;;;;6.97;3.72;;;9.30;99.90;;;;;;5088718;28;20431;-64
2023/12/31 11:24:19;;;;;;;8.00;4.10;;;9.30;99.90;;;;;;5086943;28;20048;-65
2023/12/31 11:27:03;;;;;;;7.50;3.85;;;9.20;99.90;;;;;;5102572;28;20044;-65
2023/12/31 11:29:29;;;;;;;7.97;3.95;;;9.20;99.90;;;;;;5091911;28;20068;-65
2023/12/31 11:31:55;;;;;;;7.45;3.63;;;9.50;99.90;;;;;;5129802;27;20059;-66
2023/12/31 11:34:24;;;;;;;6.38;3.28;;;9.20;99.90;;;;;;5093653;28;20055;-66
2023/12/31 11:36:54;;;;;;;6.05;1.63;;;9.10;99.90;;;;;;5094927;28;20044;-65
2023/12/31 11:39:23;;;;;;;5.30;1.50;;;9.10;99.90;;;;;;5095512;28;20048;-66
2023/12/31 11:41:54;;;;;;;3.95;1.60;;;9.00;99.90;;;;;;5094673;28;20671;-66
2023/12/31 11:44:38;;;;;;;;;;;9.00;99.90;;;;;;5090723;28;20039;-66
2023/12/31 11:47:15;;;;;;;4.55;2.05;;;8.90;99.90;;;;;;5124866;27;19928;-66
2023/12/31 11:50:07;;;;;;;4.30;1.80;;;9.20;99.90;;;;;;5095719;28;20230;-66
2023/12/31 11:52:40;;;;;;;5.72;1.83;;;8.80;99.90;;;;;;5084361;28;20052;-66
2023/12/31 11:55:10;;;;;;;3.53;1.33;;;8.70;99.90;;;;;;5091107;28;20059;-66
2023/12/31 11:57:36;;;;;;;4.20;1.13;;;8.70;99.90;;;;;;5084513;28;20048;-65
2023/12/31 12:00:07;;;;;;;2.85;1.20;;;8.60;99.90;;;;;;5088544;28;20769;-66
2023/12/31 12:02:32;;;;;;;3.53;1.10;;;8.60;99.90;;;;;;5075044;28;20418;-66
2023/12/31 12:05:02;;;;;;;4.57;1.25;;;8.60;99.90;;;;;;5128618;27;20035;-65
2023/12/31 12:07:29;;;;;;;4.63;1.77;;;8.50;99.90;;;;;;5099578;28;20062;-66
2023/12/31 12:09:55;;;;;;;5.97;1.65;;;8.50;99.90;;;;;;5092967;28;20397;-67
2023/12/31 12:12:24;;;;;;;3.97;1.55;;;8.50;99.90;;;;;;5122814;27;20051;-66
2023/12/31 12:14:50;;;;;;;6.18;1.92;;;8.50;99.90;;;;;;5093222;28;20046;-67
2023/12/31 12:17:18;;;;;;;4.55;1.80;;;8.40;99.90;;;;;;5100207;28;20058;-65
2023/12/31 12:19:45;;;;;;;5.55;2.00;;;8.40;99.90;;;;;;5094356;27;20556;-65
2023/12/31 12:22:11;;;;;;;3.25;1.10;;;8.40;99.90;;;;;;5124625;27;20130;-65
2023/12/31 12:24:36;;;;;;;2.00;0.93;;;8.40;99.90;;;;;;5095252;28;20036;-65
2023/12/31 12:27:03;;;;;;;3.42;1.10;;;8.40;99.90;;;;;;5096107;28;20062;-64
2023/12/31 12:29:29;;;;;;;4.53;1.27;;;8.40;99.90;;;;;;5126646;27;20046;-65
2023/12/31 12:31:56;;;;;;;4.18;1.30;;;8.40;99.90;;;;;;5098412;28;20065;-64
2023/12/31 12:34:22;;;;;;;3.45;1.25;;;8.40;99.90;;;;;;5099396;28;20071;-66
2023/12/31 12:36:48;;;;;;;3.58;1.63;;;8.40;99.90;;;;;;5076789;28;20053;-65
2023/12/31 12:39:14;;;;;;;5.15;1.75;;;8.50;99.90;;;;;;5094672;28;20059;-65
2023/12/31 12:41:50;;;;;;;2.92;1.25;;;8.50;99.90;;;;;;5095255;28;20044;-65
2023/12/31 12:44:16;;;;;;;5.80;1.77;;;8.50;99.90;;;;;;5093088;28;20123;-65
2023/12/31 12:46:44;;;;;;;3.63;1.35;;;8.50;99.90;;;;;;5089140;28;20070;-65
2023/12/31 12:49:11;;;;;;;4.43;1.60;;;8.50;99.90;;;;;;5121645;27;20647;-65
2023/12/31 12:51:38;;;;;;;4.32;1.40;;;8.50;99.90;;;;;;5098727;27;20036;-64
2023/12/31 12:54:05;;;;;;;3.95;1.40;;;8.50;99.90;;;;;;5092594;28;20058;-65
2023/12/31 12:56:31;;;;;;;5.55;1.38;;;8.50;99.90;;;;;;5097404;27;20051;-65